createdAt,value
2017-09-06T00:00:13.841Z,95662.92
2017-09-06T00:02:41.427Z,95665.41
2017-09-06T00:05:09.180Z,95666.63
2017-09-06T00:07:36.792Z,95661.86
2017-09-06T00:10:04.622Z,95658.66
2017-09-06T00:12:32.273Z,95654.31
2017-09-06T00:14:59.839Z,95646.80
2017-09-06T00:17:27.420Z,95651.36
2017-09-06T00:19:54.983Z,95647.97
2017-09-06T00:22:22.662Z,95643.38
2017-09-06T00:24:50.288Z,95642.75
2017-09-06T00:27:18.188Z,95632.56
2017-09-06T00:29:45.765Z,95634.98
2017-09-06T00:32:13.537Z,95636.41
2017-09-06T00:34:41.119Z,95630.33
2017-09-06T00:37:08.658Z,95628.57
2017-09-06T00:39:37.017Z,95632.97
2017-09-06T00:42:04.795Z,95634.06
2017-09-06T00:44:32.595Z,95632.44
2017-09-06T00:47:00.182Z,95624.62
2017-09-06T00:49:27.946Z,95626.74
2017-09-06T00:51:55.489Z,95625.96
2017-09-06T00:54:23.200Z,95624.67
2017-09-06T00:56:53.954Z,95625.46
2017-09-06T00:59:21.739Z,95624.09
2017-09-06T01:01:49.555Z,95620.39
2017-09-06T01:04:17.375Z,95625.74
2017-09-06T01:06:45.108Z,95624.93
2017-09-06T01:09:12.911Z,95627.38
2017-09-06T01:11:40.579Z,95630.75
2017-09-06T01:14:08.341Z,95630.42
2017-09-06T01:16:36.162Z,95630.30
2017-09-06T01:19:03.957Z,95627.73
2017-09-06T01:21:31.876Z,95633.71
2017-09-06T01:23:59.528Z,95632.78
2017-09-06T01:26:27.073Z,95638.56
2017-09-06T01:28:55.689Z,95642.59
2017-09-06T01:31:23.306Z,95638.94
2017-09-06T01:33:50.893Z,95626.59
2017-09-06T01:36:18.514Z,95626.89
2017-09-06T01:38:46.112Z,95631.83
2017-09-06T01:41:14.013Z,95623.66
2017-09-06T01:43:42.772Z,95627.34
2017-09-06T01:46:10.402Z,95620.06
2017-09-06T01:48:38.006Z,95610.67
2017-09-06T01:51:06.057Z,95618.47
2017-09-06T01:53:33.696Z,95602.89
2017-09-06T01:56:01.580Z,95607.45
2017-09-06T01:58:29.379Z,95605.30
2017-09-06T02:00:57.003Z,95605.98
2017-09-06T02:03:24.632Z,95607.92
2017-09-06T02:05:52.314Z,95607.97
2017-09-06T02:08:19.922Z,95590.42
2017-09-06T02:10:47.636Z,95603.79
2017-09-06T02:13:15.190Z,95612.95
2017-09-06T02:15:42.812Z,95608.31
2017-09-06T02:18:10.387Z,95604.39
2017-09-06T02:20:38.444Z,95609.27
2017-09-06T02:23:06.520Z,95610.86
2017-09-06T02:25:34.207Z,95603.48
2017-09-06T02:28:02.139Z,95596.63
2017-09-06T02:30:30.015Z,95605.70
2017-09-06T02:32:57.588Z,95602.98
2017-09-06T02:35:25.151Z,95598.55
2017-09-06T02:37:53.267Z,95602.13
2017-09-06T02:40:20.871Z,95595.53
2017-09-06T02:42:48.445Z,95599.44
2017-09-06T02:45:16.623Z,95591.80
2017-09-06T02:47:44.220Z,95599.94
2017-09-06T02:50:12.106Z,95596.98
2017-09-06T02:52:39.878Z,95597.78
2017-09-06T02:55:08.274Z,95604.95
2017-09-06T02:57:35.880Z,95611.84
2017-09-06T03:00:05.701Z,95606.94
2017-09-06T03:02:33.506Z,95610.74
2017-09-06T03:05:01.183Z,95611.31
2017-09-06T03:07:28.848Z,95605.19
2017-09-06T03:09:56.478Z,95597.53
2017-09-06T03:12:24.089Z,95599.84
2017-09-06T03:14:52.217Z,95602.59
2017-09-06T03:17:19.767Z,95594.00
2017-09-06T03:19:47.357Z,95591.00
2017-09-06T03:22:14.983Z,95596.77
2017-09-06T03:24:42.579Z,95594.84
2017-09-06T03:27:10.167Z,95585.56
2017-09-06T03:29:37.772Z,95587.57
2017-09-06T03:32:05.325Z,95599.84
2017-09-06T03:34:33.307Z,95593.54
2017-09-06T03:37:01.740Z,95593.48
2017-09-06T03:39:29.376Z,95594.84
2017-09-06T03:41:57.015Z,95588.41
2017-09-06T03:44:24.743Z,95590.94
2017-09-06T03:46:52.399Z,95584.14
2017-09-06T03:49:20.193Z,95589.39
2017-09-06T03:51:47.977Z,95593.78
2017-09-06T03:54:15.558Z,95595.11
2017-09-06T03:56:43.318Z,95593.08
2017-09-06T03:59:11.072Z,95586.99
2017-09-06T04:01:39.473Z,95588.67
2017-09-06T04:04:07.088Z,95591.84
2017-09-06T04:06:34.669Z,95592.42
2017-09-06T04:09:02.340Z,95595.45
2017-09-06T04:11:30.663Z,95594.11
2017-09-06T04:13:58.245Z,95606.80
2017-09-06T04:16:25.882Z,95602.58
2017-09-06T04:18:53.461Z,95603.01
2017-09-06T04:21:21.113Z,95603.56
2017-09-06T04:23:48.996Z,95603.05
2017-09-06T04:26:17.538Z,95610.70
2017-09-06T04:28:45.119Z,95614.06
2017-09-06T04:31:12.712Z,95620.92
2017-09-06T04:33:40.240Z,95614.42
2017-09-06T04:36:07.788Z,95620.75
2017-09-06T04:38:35.373Z,95620.70
2017-09-06T04:41:02.941Z,95622.59
2017-09-06T04:43:30.475Z,95621.53
2017-09-06T04:45:58.128Z,95624.09
2017-09-06T04:48:25.774Z,95611.73
2017-09-06T04:50:53.617Z,95611.32
2017-09-06T04:53:21.373Z,95616.19
2017-09-06T04:55:49.155Z,95624.80
2017-09-06T04:58:17.043Z,95625.73
2017-09-06T05:00:44.794Z,95619.37
2017-09-06T05:03:12.687Z,95616.20
2017-09-06T05:05:40.570Z,95613.70
2017-09-06T05:08:08.253Z,95614.06
2017-09-06T05:10:35.830Z,95618.34
2017-09-06T05:13:03.524Z,95628.52
2017-09-06T05:15:31.250Z,95627.59
2017-09-06T05:17:58.822Z,95633.50
2017-09-06T05:20:26.545Z,95628.27
2017-09-06T05:22:54.191Z,95626.39
2017-09-06T05:25:21.829Z,95632.34
2017-09-06T05:27:49.640Z,95635.15
2017-09-06T05:30:17.433Z,95642.70
2017-09-06T05:32:45.081Z,95635.94
2017-09-06T05:35:12.666Z,95628.01
2017-09-06T05:37:40.303Z,95632.19
2017-09-06T05:40:08.072Z,95628.38
2017-09-06T05:42:35.935Z,95626.68
2017-09-06T05:45:03.525Z,95625.36
2017-09-06T05:47:31.112Z,95630.45
2017-09-06T05:49:58.674Z,95622.31
2017-09-06T05:52:26.632Z,95630.12
2017-09-06T05:54:54.358Z,95632.22
2017-09-06T05:57:21.946Z,95630.62
2017-09-06T05:59:49.549Z,95629.36
2017-09-06T06:02:17.178Z,95628.27
2017-09-06T06:04:44.761Z,95637.44
2017-09-06T06:07:12.585Z,95634.02
2017-09-06T06:09:40.219Z,95632.89
2017-09-06T06:12:08.251Z,95641.13
2017-09-06T06:14:36.094Z,95637.59
2017-09-06T06:17:03.944Z,95627.20
2017-09-06T06:19:31.654Z,95634.70
2017-09-06T06:21:59.404Z,95629.23
2017-09-06T06:24:27.109Z,95628.52
2017-09-06T06:26:54.990Z,95629.48
2017-09-06T06:29:22.666Z,95623.30
2017-09-06T06:31:50.347Z,95624.44
2017-09-06T06:34:18.132Z,95625.28
2017-09-06T06:36:45.897Z,95619.66
2017-09-06T06:39:13.559Z,95625.98
2017-09-06T06:41:41.434Z,95627.45
2017-09-06T06:44:09.107Z,95627.81
2017-09-06T06:46:36.820Z,95629.47
2017-09-06T06:49:04.573Z,95622.51
2017-09-06T06:51:32.243Z,95624.98
2017-09-06T06:54:00.069Z,95613.98
2017-09-06T06:56:27.706Z,95609.04
2017-09-06T06:58:55.406Z,95611.17
2017-09-06T07:01:23.971Z,95616.92
2017-09-06T07:03:51.533Z,95621.51
2017-09-06T07:06:19.096Z,95626.50
2017-09-06T07:08:46.737Z,95631.92
2017-09-06T07:11:14.376Z,95634.22
2017-09-06T07:13:41.950Z,95631.64
2017-09-06T07:16:10.027Z,95632.97
2017-09-06T07:18:38.583Z,95629.86
2017-09-06T07:21:07.037Z,95630.06
2017-09-06T07:23:35.091Z,95620.23
2017-09-06T07:26:03.024Z,95627.89
2017-09-06T07:28:30.794Z,95613.13
2017-09-06T07:30:58.732Z,95625.77
2017-09-06T07:33:27.582Z,95633.28
2017-09-06T07:35:55.551Z,95628.96
2017-09-06T07:38:23.794Z,95632.05
2017-09-06T07:40:51.522Z,95624.44
2017-09-06T07:43:20.058Z,95625.72
2017-09-06T07:45:48.266Z,95628.81
2017-09-06T07:48:16.218Z,95626.66
2017-09-06T07:50:44.093Z,95627.95
2017-09-06T07:53:12.252Z,95619.09
2017-09-06T07:55:41.011Z,95614.27
2017-09-06T07:58:09.011Z,95613.66
2017-09-06T08:00:37.433Z,95616.47
2017-09-06T08:03:06.734Z,95618.03
2017-09-06T08:05:34.748Z,95611.75
2017-09-06T08:08:07.324Z,95609.11
2017-09-06T08:10:35.081Z,95604.23
2017-09-06T08:13:02.785Z,95600.75
2017-09-06T08:15:30.533Z,95600.69
2017-09-06T08:17:58.168Z,95592.07
2017-09-06T08:20:25.754Z,95585.63
2017-09-06T08:22:53.618Z,95585.91
2017-09-06T08:25:21.145Z,95585.56
2017-09-06T08:27:48.765Z,95579.70
2017-09-06T08:30:16.492Z,95580.78
2017-09-06T08:32:44.134Z,95579.02
2017-09-06T08:35:12.163Z,95588.61
2017-09-06T08:37:39.920Z,95585.09
2017-09-06T08:40:07.543Z,95574.34
2017-09-06T08:42:35.061Z,95563.78
2017-09-06T08:45:02.644Z,95570.18
2017-09-06T08:47:30.259Z,95564.21
2017-09-06T08:49:58.030Z,95559.52
2017-09-06T08:52:25.664Z,95563.66
2017-09-06T08:54:53.408Z,95562.95
2017-09-06T08:57:20.993Z,95563.88
2017-09-06T08:59:48.631Z,95556.69
2017-09-06T09:02:16.257Z,95555.61
2017-09-06T09:04:43.847Z,95548.75
2017-09-06T09:07:11.405Z,95556.22
2017-09-06T09:09:38.993Z,95542.83
2017-09-06T09:12:06.755Z,95550.19
2017-09-06T09:14:34.439Z,95547.37
2017-09-06T09:17:02.775Z,95527.43
2017-09-06T09:19:36.466Z,95528.98
2017-09-06T09:22:08.536Z,95530.91
2017-09-06T09:24:36.111Z,95527.69
2017-09-06T09:27:03.909Z,95531.11
2017-09-06T09:29:31.728Z,95534.09
2017-09-06T09:31:59.345Z,95516.88
2017-09-06T09:34:26.944Z,95525.70
2017-09-06T09:36:54.475Z,95520.66
2017-09-06T09:39:22.046Z,95507.20
2017-09-06T09:41:49.820Z,95503.36
2017-09-06T09:44:17.375Z,95513.38
2017-09-06T09:46:44.949Z,95510.00
2017-09-06T09:49:12.539Z,95503.28
2017-09-06T09:51:40.289Z,95499.59
2017-09-06T09:54:07.880Z,95502.41
2017-09-06T09:56:35.449Z,95508.44
2017-09-06T09:59:02.980Z,95497.20
2017-09-06T10:01:30.587Z,95493.30
2017-09-06T10:03:58.160Z,95490.88
2017-09-06T10:06:26.649Z,95494.72
2017-09-06T10:08:54.241Z,95482.49
2017-09-06T10:11:21.760Z,95483.28
2017-09-06T10:13:49.352Z,95485.76
2017-09-06T10:16:16.950Z,95488.12
2017-09-06T10:18:44.572Z,95484.28
2017-09-06T10:21:12.137Z,95472.11
2017-09-06T10:23:39.743Z,95480.30
2017-09-06T10:26:07.280Z,95467.66
2017-09-06T10:28:34.808Z,95475.09
2017-09-06T10:31:02.591Z,95479.60
2017-09-06T10:33:30.133Z,95463.80
2017-09-06T10:35:57.730Z,95471.64
2017-09-06T10:38:25.285Z,95469.14
2017-09-06T10:40:53.076Z,95471.03
2017-09-06T10:43:20.580Z,95460.06
2017-09-06T10:45:48.217Z,95455.91
2017-09-06T10:48:15.800Z,95459.56
2017-09-06T10:50:43.707Z,95453.64
2017-09-06T10:53:11.265Z,95457.84
2017-09-06T10:55:38.795Z,95456.73
2017-09-06T10:58:06.327Z,95461.77
2017-09-06T11:00:33.963Z,95449.09
2017-09-06T11:03:01.513Z,95450.37
2017-09-06T11:05:29.025Z,95446.14
2017-09-06T11:07:56.624Z,95435.70
2017-09-06T11:10:24.139Z,95440.19
2017-09-06T11:12:51.881Z,95451.91
2017-09-06T11:15:19.925Z,95443.09
2017-09-06T11:17:47.475Z,95436.37
2017-09-06T11:20:14.995Z,95434.73
2017-09-06T11:22:42.556Z,95428.97
2017-09-06T11:25:10.075Z,95429.55
2017-09-06T11:27:37.637Z,95437.23
2017-09-06T11:30:06.774Z,95444.34
2017-09-06T11:32:36.204Z,95434.38
2017-09-06T11:35:04.069Z,95440.31
2017-09-06T11:37:31.637Z,95442.78
2017-09-06T11:39:59.164Z,95439.94
2017-09-06T11:42:27.003Z,95434.74
2017-09-06T11:44:54.723Z,95425.09
2017-09-06T11:47:22.340Z,95419.00
2017-09-06T11:49:49.883Z,95411.72
2017-09-06T11:52:20.581Z,95423.05
2017-09-06T11:54:48.185Z,95418.72
2017-09-06T11:57:15.704Z,95412.41
2017-09-06T11:59:43.266Z,95419.64
2017-09-06T12:02:11.198Z,95419.38
2017-09-06T12:04:38.791Z,95408.42
2017-09-06T12:07:06.433Z,95406.67
2017-09-06T12:09:34.052Z,95411.63
2017-09-06T12:12:01.855Z,95403.42
2017-09-06T12:14:29.504Z,95396.67
2017-09-06T12:16:57.146Z,95397.85
2017-09-06T12:19:26.806Z,95396.23
2017-09-06T12:21:54.364Z,95400.59
2017-09-06T12:24:21.955Z,95400.10
2017-09-06T12:26:49.516Z,95394.91
2017-09-06T12:29:17.029Z,95395.73
2017-09-06T12:31:44.807Z,95396.16
2017-09-06T12:34:12.341Z,95396.13
2017-09-06T12:36:39.905Z,95399.31
2017-09-06T12:39:07.493Z,95401.77
2017-09-06T12:41:35.066Z,95407.33
2017-09-06T12:44:02.703Z,95390.77
2017-09-06T12:46:31.190Z,95398.40
2017-09-06T12:48:59.130Z,95390.39
2017-09-06T12:51:27.632Z,95397.10
2017-09-06T12:53:55.488Z,95395.03
2017-09-06T12:56:23.079Z,95391.72
2017-09-06T12:59:16.484Z,95385.39
2017-09-06T13:01:44.061Z,95383.80
2017-09-06T13:04:11.566Z,95373.97
2017-09-06T13:06:39.136Z,95386.27
2017-09-06T13:09:06.715Z,95382.50
2017-09-06T13:11:35.725Z,95373.72
2017-09-06T13:14:03.363Z,95384.23
2017-09-06T13:19:29.678Z,95368.75
2017-09-06T13:21:57.251Z,95368.47
2017-09-06T13:24:24.783Z,95369.27
2017-09-06T13:26:52.350Z,95368.41
2017-09-06T13:29:19.935Z,95355.05
2017-09-06T13:31:47.508Z,95349.93
2017-09-06T13:34:15.068Z,95348.08
2017-09-06T13:36:42.613Z,95343.09
2017-09-06T13:39:10.194Z,95353.25
2017-09-06T13:41:37.706Z,95357.95
2017-09-06T13:44:05.491Z,95358.06
2017-09-06T13:46:33.103Z,95366.06
2017-09-06T13:49:00.707Z,95360.98
2017-09-06T13:51:28.274Z,95361.38
2017-09-06T13:53:55.849Z,95366.28
2017-09-06T13:56:23.581Z,95364.00
2017-09-06T13:58:51.112Z,95356.20
2017-09-06T14:01:18.708Z,95357.42
2017-09-06T14:03:46.231Z,95353.58
2017-09-06T14:06:13.965Z,95352.84
2017-09-06T14:08:41.560Z,95357.68
2017-09-06T14:11:09.862Z,95352.42
2017-09-06T14:13:37.532Z,95358.48
2017-09-06T14:16:05.938Z,95357.73
2017-09-06T14:18:33.814Z,95352.02
2017-09-06T14:21:01.387Z,95344.07
2017-09-06T14:23:29.157Z,95348.69
2017-09-06T14:25:56.735Z,95343.50
2017-09-06T14:28:24.514Z,95344.36
2017-09-06T14:30:52.087Z,95346.11
2017-09-06T14:33:19.840Z,95329.19
2017-09-06T14:35:47.392Z,95339.88
2017-09-06T14:38:14.943Z,95334.29
2017-09-06T14:40:42.594Z,95339.53
2017-09-06T14:43:10.369Z,95347.62
2017-09-06T14:45:38.005Z,95340.78
2017-09-06T14:48:05.597Z,95344.23
2017-09-06T14:50:33.192Z,95344.64
2017-09-06T14:53:00.932Z,95334.25
2017-09-06T14:55:28.600Z,95325.76
2017-09-06T14:57:56.135Z,95335.70
2017-09-06T15:00:23.736Z,95330.23
2017-09-06T15:02:51.272Z,95333.00
2017-09-06T15:05:19.137Z,95333.00
2017-09-06T15:07:46.752Z,95337.92
2017-09-06T15:10:14.404Z,95337.67
2017-09-06T15:12:41.952Z,95341.97
2017-09-06T15:15:09.561Z,95327.97
2017-09-06T15:17:37.121Z,95334.19
2017-09-06T15:20:04.668Z,95324.91
2017-09-06T15:22:32.248Z,95324.66
2017-09-06T15:25:00.035Z,95327.52
2017-09-06T15:27:27.659Z,95326.81
2017-09-06T15:29:55.207Z,95317.00
2017-09-06T15:32:22.809Z,95324.69
2017-09-06T15:34:50.600Z,95324.27
2017-09-06T15:37:18.574Z,95319.59
2017-09-06T15:39:46.334Z,95329.90
2017-09-06T15:42:13.926Z,95324.52
2017-09-06T15:44:41.465Z,95320.92
2017-09-06T15:47:09.929Z,95326.41
2017-09-06T15:49:38.341Z,95329.73
2017-09-06T15:52:06.124Z,95327.61
2017-09-06T15:54:33.696Z,95333.64
2017-09-06T15:57:01.681Z,95333.62
2017-09-06T15:59:29.289Z,95338.20
2017-09-06T16:05:28.333Z,95340.97
2017-09-06T16:07:56.142Z,95345.06
2017-09-06T16:10:23.701Z,95337.26
2017-09-06T16:12:51.287Z,95342.33
2017-09-06T16:15:18.865Z,95327.60
2017-09-06T16:17:46.433Z,95340.20
2017-09-06T16:20:14.114Z,95333.03
2017-09-06T16:22:41.640Z,95337.86
2017-09-06T16:25:09.217Z,95336.35
2017-09-06T16:27:36.820Z,95339.93
2017-09-06T16:30:11.552Z,95353.41
2017-09-06T16:32:39.656Z,95346.36
2017-09-06T16:35:07.255Z,95347.38
2017-09-06T16:37:35.141Z,95348.12
2017-09-06T16:40:05.101Z,95348.33
2017-09-06T16:45:43.663Z,95353.27
2017-09-06T16:48:24.537Z,95352.64
2017-09-06T16:50:52.183Z,95355.03
2017-09-06T16:53:30.869Z,95355.45
2017-09-06T16:55:58.467Z,95357.28
2017-09-06T16:58:26.255Z,95361.97
2017-09-06T17:00:53.838Z,95366.55
2017-09-06T17:03:21.366Z,95370.16
2017-09-06T17:05:48.904Z,95375.94
2017-09-06T17:08:16.774Z,95366.38
2017-09-06T17:10:44.355Z,95373.63
2017-09-06T17:13:11.956Z,95378.01
2017-09-06T17:15:39.554Z,95379.65
2017-09-06T17:18:07.087Z,95385.81
2017-09-06T17:20:34.701Z,95381.48
2017-09-06T17:23:02.368Z,95385.15
2017-09-06T17:25:30.017Z,95384.70
2017-09-06T17:27:57.631Z,95390.04
2017-09-06T17:30:25.372Z,95393.01
2017-09-06T17:32:53.069Z,95402.73
2017-09-06T17:35:20.621Z,95399.19
2017-09-06T17:37:48.303Z,95414.55
2017-09-06T17:40:15.888Z,95411.00
2017-09-06T17:42:43.445Z,95416.89
2017-09-06T17:45:11.036Z,95418.30
2017-09-06T17:47:38.859Z,95423.22
2017-09-06T17:50:06.518Z,95429.28
2017-09-06T17:52:34.102Z,95433.81
2017-09-06T17:55:01.852Z,95435.12
2017-09-06T17:57:29.427Z,95441.98
2017-09-06T17:59:57.185Z,95453.98
2017-09-06T18:02:24.856Z,95454.22
2017-09-06T18:04:52.634Z,95454.80
2017-09-06T18:07:20.208Z,95465.44
2017-09-06T18:09:47.919Z,95460.70
2017-09-06T18:12:16.112Z,95464.30
2017-09-06T18:14:43.819Z,95457.80
2017-09-06T18:17:12.359Z,95460.43
2017-09-06T18:19:40.889Z,95467.13
2017-09-06T18:22:10.054Z,95466.32
2017-09-06T18:24:37.852Z,95466.95
2017-09-06T18:27:06.808Z,95473.67
2017-09-06T18:29:35.411Z,95468.83
2017-09-06T18:32:03.092Z,95477.65
2017-09-06T18:34:30.713Z,95472.38
2017-09-06T18:36:58.948Z,95479.20
2017-09-06T18:39:34.271Z,95479.83
2017-09-06T18:42:01.936Z,95475.68
2017-09-06T18:44:29.632Z,95484.73
2017-09-06T18:46:57.245Z,95485.31
2017-09-06T18:49:24.848Z,95480.22
2017-09-06T18:51:52.464Z,95484.35
2017-09-06T18:54:20.049Z,95485.12
2017-09-06T18:56:48.562Z,95479.25
2017-09-06T18:59:16.222Z,95474.76
2017-09-06T19:01:48.900Z,95472.78
2017-09-06T19:04:19.396Z,95462.20
2017-09-06T19:06:49.073Z,95469.66
2017-09-06T19:09:16.853Z,95462.98
2017-09-06T19:11:45.078Z,95458.10
2017-09-06T19:14:13.673Z,95464.38
2017-09-06T19:16:41.757Z,95458.09
2017-09-06T19:19:09.576Z,95462.77
2017-09-06T19:21:37.408Z,95464.55
2017-09-06T19:24:05.408Z,95463.78
2017-09-06T19:26:32.975Z,95464.97
2017-09-06T19:29:00.535Z,95462.41
2017-09-06T19:31:28.205Z,95459.86
2017-09-06T19:33:56.126Z,95467.48
2017-09-06T19:36:23.777Z,95462.21
2017-09-06T19:38:51.402Z,95458.87
2017-09-06T19:41:20.423Z,95462.20
2017-09-06T19:43:48.060Z,95462.78
2017-09-06T19:46:15.689Z,95450.45
2017-09-06T19:48:43.338Z,95459.66
2017-09-06T19:51:11.612Z,95464.94
2017-09-06T19:53:39.189Z,95461.20
2017-09-06T19:56:07.701Z,95457.23
2017-09-06T19:58:35.821Z,95460.56
2017-09-06T20:01:03.529Z,95463.28
2017-09-06T20:03:31.095Z,95458.03
2017-09-06T20:06:00.435Z,95460.56
2017-09-06T20:08:28.011Z,95462.10
2017-09-06T20:10:55.587Z,95465.22
2017-09-06T20:13:23.351Z,95463.87
2017-09-06T20:15:51.372Z,95466.20
2017-09-06T20:18:19.816Z,95468.91
2017-09-06T20:20:48.455Z,95469.20
2017-09-06T20:23:43.121Z,95466.22
2017-09-06T20:26:59.146Z,95464.67
2017-09-06T20:29:28.313Z,95459.98
2017-09-06T20:31:56.059Z,95459.66
2017-09-06T20:34:23.945Z,95461.17
2017-09-06T20:36:52.064Z,95450.45
2017-09-06T20:39:19.716Z,95453.41
2017-09-06T20:45:17.919Z,95450.18
2017-09-06T20:47:45.602Z,95443.59
2017-09-06T20:53:46.396Z,95447.91
2017-09-06T20:56:26.726Z,95447.52
2017-09-06T20:58:54.321Z,95451.83
2017-09-06T21:01:22.802Z,95445.95
2017-09-06T21:03:51.525Z,95448.73
2017-09-06T21:06:20.759Z,95454.24
2017-09-06T21:08:48.627Z,95454.84
2017-09-06T21:11:16.822Z,95458.22
2017-09-06T21:13:44.588Z,95463.32
2017-09-06T21:16:13.155Z,95465.27
2017-09-06T21:18:40.958Z,95471.35
2017-09-06T21:21:35.729Z,95462.12
2017-09-06T21:27:21.777Z,95460.22
2017-09-06T21:29:49.543Z,95461.07
2017-09-06T21:39:18.648Z,95460.62
2017-09-06T21:41:47.126Z,95458.06
2017-09-06T21:44:14.915Z,95470.33
2017-09-06T21:46:43.403Z,95476.96
2017-09-06T21:49:11.942Z,95479.41
2017-09-06T21:51:39.693Z,95481.75
2017-09-06T21:54:07.308Z,95478.96
2017-09-06T21:56:34.855Z,95476.45
2017-09-06T21:59:02.408Z,95479.36
2017-09-06T22:01:30.361Z,95487.41
2017-09-06T22:03:57.888Z,95483.80
2017-09-06T22:06:25.420Z,95491.50
2017-09-06T22:08:53.160Z,95492.84
2017-09-06T22:11:21.381Z,95492.91
2017-09-06T22:13:49.135Z,95495.22
2017-09-06T22:16:16.724Z,95496.74
2017-09-06T22:18:44.301Z,95495.84
2017-09-06T22:21:11.840Z,95497.77
2017-09-06T22:23:39.475Z,95509.73
2017-09-06T22:26:07.913Z,95512.47
2017-09-06T22:28:36.598Z,95507.77
2017-09-06T22:31:04.512Z,95505.33
2017-09-06T22:33:32.052Z,95513.47
2017-09-06T22:35:59.583Z,95504.37
2017-09-06T22:38:27.199Z,95502.96
2017-09-06T22:40:54.942Z,95502.23
2017-09-06T22:43:22.614Z,95501.67
2017-09-06T22:45:50.215Z,95507.92
2017-09-06T22:48:17.763Z,95506.48
2017-09-06T22:50:46.176Z,95505.13
2017-09-06T22:53:13.752Z,95505.05
2017-09-06T22:55:42.917Z,95505.05
2017-09-06T22:58:10.443Z,95500.97
2017-09-06T23:00:39.296Z,95504.23
2017-09-06T23:03:06.892Z,95501.44
2017-09-06T23:05:34.550Z,95511.24
2017-09-06T23:08:02.116Z,95507.56
2017-09-06T23:10:29.626Z,95514.68
2017-09-06T23:12:57.752Z,95514.65
2017-09-06T23:15:25.606Z,95510.30
2017-09-06T23:17:53.295Z,95510.75
2017-09-06T23:20:20.821Z,95504.63
2017-09-06T23:22:48.399Z,95510.49
2017-09-06T23:25:15.927Z,95514.70
2017-09-06T23:27:44.867Z,95512.75
2017-09-06T23:30:13.502Z,95523.59
2017-09-06T23:32:41.027Z,95520.72
2017-09-06T23:35:08.796Z,95513.34
2017-09-06T23:37:36.342Z,95512.18
2017-09-06T23:40:03.888Z,95510.66
2017-09-06T23:42:31.398Z,95512.16
2017-09-06T23:44:58.967Z,95510.16
2017-09-06T23:47:26.492Z,95514.66
2017-09-06T23:49:54.252Z,95512.92
2017-09-06T23:52:21.814Z,95513.21
2017-09-06T23:54:49.326Z,95518.86
2017-09-06T23:57:17.400Z,95518.94
2017-09-06T23:59:44.947Z,95524.47
